sensor_id;sensor_type;location;lat;lon;timestamp;P1;durP1;ratioP1;P2;durP2;ratioP2
54853;SDS011;40747;49.480;8.658;2023-08-17T00:02:19;1.10;;;0.93;;
54853;SDS011;40747;49.480;8.658;2023-08-17T00:04:45;3.25;;;1.00;;
54853;SDS011;40747;49.480;8.658;2023-08-17T00:07:10;1.08;;;0.65;;
54853;SDS011;40747;49.480;8.658;2023-08-17T00:09:35;1.85;;;1.20;;
54853;SDS011;40747;49.480;8.658;2023-08-17T00:12:01;1.83;;;1.13;;
54853;SDS011;40747;49.480;8.658;2023-08-17T00:14:26;2.03;;;1.17;;
54853;SDS011;40747;49.480;8.658;2023-08-17T00:16:51;1.75;;;0.98;;
54853;SDS011;40747;49.480;8.658;2023-08-17T00:19:17;4.32;;;0.80;;
54853;SDS011;40747;49.480;8.658;2023-08-17T00:21:43;0.95;;;0.70;;
54853;SDS011;40747;49.480;8.658;2023-08-17T00:24:09;1.60;;;0.90;;
54853;SDS011;40747;49.480;8.658;2023-08-17T00:26:35;1.23;;;0.80;;
54853;SDS011;40747;49.480;8.658;2023-08-17T00:29:00;2.08;;;1.17;;
54853;SDS011;40747;49.480;8.658;2023-08-17T00:31:25;2.15;;;0.95;;
54853;SDS011;40747;49.480;8.658;2023-08-17T00:33:51;3.00;;;1.17;;
54853;SDS011;40747;49.480;8.658;2023-08-17T00:36:16;2.67;;;1.10;;
54853;SDS011;40747;49.480;8.658;2023-08-17T00:38:41;1.08;;;0.80;;
54853;SDS011;40747;49.480;8.658;2023-08-17T00:41:07;1.20;;;0.73;;
54853;SDS011;40747;49.480;8.658;2023-08-17T00:43:32;3.00;;;0.80;;
54853;SDS011;40747;49.480;8.658;2023-08-17T00:45:57;2.00;;;1.00;;
54853;SDS011;40747;49.480;8.658;2023-08-17T00:48:23;1.48;;;0.82;;
54853;SDS011;40747;49.480;8.658;2023-08-17T00:50:49;1.85;;;0.80;;
54853;SDS011;40747;49.480;8.658;2023-08-17T00:53:17;2.53;;;0.90;;
54853;SDS011;40747;49.480;8.658;2023-08-17T00:55:43;0.88;;;0.68;;
54853;SDS011;40747;49.480;8.658;2023-08-17T00:58:09;2.53;;;1.10;;
54853;SDS011;40747;49.480;8.658;2023-08-17T01:00:34;1.35;;;0.75;;
54853;SDS011;40747;49.480;8.658;2023-08-17T01:03:00;2.45;;;0.90;;
54853;SDS011;40747;49.480;8.658;2023-08-17T01:05:25;2.92;;;1.13;;
54853;SDS011;40747;49.480;8.658;2023-08-17T01:07:50;1.42;;;0.90;;
54853;SDS011;40747;49.480;8.658;2023-08-17T01:10:16;3.80;;;1.20;;
54853;SDS011;40747;49.480;8.658;2023-08-17T01:12:48;2.10;;;0.88;;
54853;SDS011;40747;49.480;8.658;2023-08-17T01:15:31;4.05;;;1.02;;
54853;SDS011;40747;49.480;8.658;2023-08-17T01:18:15;1.20;;;0.95;;
54853;SDS011;40747;49.480;8.658;2023-08-17T01:20:47;1.90;;;1.10;;
54853;SDS011;40747;49.480;8.658;2023-08-17T01:23:14;1.40;;;0.70;;
54853;SDS011;40747;49.480;8.658;2023-08-17T01:25:39;3.13;;;0.95;;
54853;SDS011;40747;49.480;8.658;2023-08-17T01:28:05;1.17;;;1.00;;
54853;SDS011;40747;49.480;8.658;2023-08-17T01:33:23;2.83;;;1.40;;
54853;SDS011;40747;49.480;8.658;2023-08-17T01:38:49;3.33;;;1.10;;
54853;SDS011;40747;49.480;8.658;2023-08-17T01:41:16;1.35;;;0.98;;
54853;SDS011;40747;49.480;8.658;2023-08-17T01:43:43;1.73;;;1.27;;
54853;SDS011;40747;49.480;8.658;2023-08-17T01:46:16;2.10;;;1.27;;
54853;SDS011;40747;49.480;8.658;2023-08-17T01:48:42;9.75;;;2.13;;
54853;SDS011;40747;49.480;8.658;2023-08-17T01:51:10;6.18;;;1.27;;
54853;SDS011;40747;49.480;8.658;2023-08-17T01:53:36;1.38;;;0.90;;
54853;SDS011;40747;49.480;8.658;2023-08-17T01:56:01;0.93;;;0.82;;
54853;SDS011;40747;49.480;8.658;2023-08-17T01:58:27;3.47;;;1.02;;
54853;SDS011;40747;49.480;8.658;2023-08-17T02:00:52;2.78;;;1.00;;
54853;SDS011;40747;49.480;8.658;2023-08-17T02:03:17;1.15;;;0.90;;
54853;SDS011;40747;49.480;8.658;2023-08-17T02:05:46;2.28;;;1.20;;
54853;SDS011;40747;49.480;8.658;2023-08-17T02:08:12;2.38;;;0.80;;
54853;SDS011;40747;49.480;8.658;2023-08-17T02:10:37;2.58;;;1.50;;
54853;SDS011;40747;49.480;8.658;2023-08-17T02:13:03;3.75;;;1.02;;
54853;SDS011;40747;49.480;8.658;2023-08-17T02:15:28;3.85;;;0.90;;
54853;SDS011;40747;49.480;8.658;2023-08-17T02:17:53;1.85;;;1.10;;
54853;SDS011;40747;49.480;8.658;2023-08-17T02:20:19;2.58;;;1.05;;
54853;SDS011;40747;49.480;8.658;2023-08-17T02:22:44;3.15;;;0.93;;
54853;SDS011;40747;49.480;8.658;2023-08-17T02:25:09;3.83;;;0.82;;
54853;SDS011;40747;49.480;8.658;2023-08-17T02:27:35;1.38;;;1.05;;
54853;SDS011;40747;49.480;8.658;2023-08-17T02:30:00;0.85;;;0.68;;
54853;SDS011;40747;49.480;8.658;2023-08-17T02:32:25;1.70;;;0.90;;
54853;SDS011;40747;49.480;8.658;2023-08-17T02:34:51;2.65;;;1.10;;
54853;SDS011;40747;49.480;8.658;2023-08-17T02:37:16;2.90;;;0.93;;
54853;SDS011;40747;49.480;8.658;2023-08-17T02:39:41;2.15;;;1.05;;
54853;SDS011;40747;49.480;8.658;2023-08-17T02:42:07;2.90;;;1.15;;
54853;SDS011;40747;49.480;8.658;2023-08-17T02:44:32;2.85;;;1.33;;
54853;SDS011;40747;49.480;8.658;2023-08-17T02:46:57;2.65;;;1.15;;
54853;SDS011;40747;49.480;8.658;2023-08-17T02:49:23;1.58;;;1.00;;
54853;SDS011;40747;49.480;8.658;2023-08-17T02:51:48;1.38;;;0.90;;
54853;SDS011;40747;49.480;8.658;2023-08-17T02:54:13;1.50;;;0.93;;
54853;SDS011;40747;49.480;8.658;2023-08-17T02:56:38;3.25;;;1.00;;
54853;SDS011;40747;49.480;8.658;2023-08-17T02:59:04;1.65;;;1.00;;
54853;SDS011;40747;49.480;8.658;2023-08-17T03:01:29;1.63;;;1.05;;
54853;SDS011;40747;49.480;8.658;2023-08-17T03:03:55;1.23;;;0.90;;
54853;SDS011;40747;49.480;8.658;2023-08-17T03:06:20;2.38;;;1.45;;
54853;SDS011;40747;49.480;8.658;2023-08-17T03:08:45;2.22;;;1.17;;
54853;SDS011;40747;49.480;8.658;2023-08-17T03:11:10;0.82;;;0.73;;
54853;SDS011;40747;49.480;8.658;2023-08-17T03:13:36;2.13;;;0.98;;
54853;SDS011;40747;49.480;8.658;2023-08-17T03:16:01;4.75;;;1.00;;
54853;SDS011;40747;49.480;8.658;2023-08-17T03:18:26;1.58;;;1.02;;
54853;SDS011;40747;49.480;8.658;2023-08-17T03:20:52;3.70;;;0.95;;
54853;SDS011;40747;49.480;8.658;2023-08-17T03:23:17;2.38;;;1.10;;
54853;SDS011;40747;49.480;8.658;2023-08-17T03:25:42;3.35;;;0.82;;
54853;SDS011;40747;49.480;8.658;2023-08-17T03:28:08;4.50;;;1.00;;
54853;SDS011;40747;49.480;8.658;2023-08-17T03:30:33;1.50;;;0.95;;
54853;SDS011;40747;49.480;8.658;2023-08-17T03:32:58;3.90;;;1.13;;
54853;SDS011;40747;49.480;8.658;2023-08-17T03:35:24;2.60;;;1.08;;
54853;SDS011;40747;49.480;8.658;2023-08-17T03:37:49;2.22;;;0.90;;
54853;SDS011;40747;49.480;8.658;2023-08-17T03:40:15;3.20;;;1.05;;
54853;SDS011;40747;49.480;8.658;2023-08-17T03:42:40;3.20;;;1.27;;
54853;SDS011;40747;49.480;8.658;2023-08-17T03:45:06;1.20;;;0.98;;
54853;SDS011;40747;49.480;8.658;2023-08-17T03:47:32;3.22;;;1.42;;
54853;SDS011;40747;49.480;8.658;2023-08-17T03:49:57;2.65;;;1.08;;
54853;SDS011;40747;49.480;8.658;2023-08-17T03:52:22;2.95;;;1.30;;
54853;SDS011;40747;49.480;8.658;2023-08-17T03:54:47;6.60;;;1.40;;
54853;SDS011;40747;49.480;8.658;2023-08-17T03:57:13;5.93;;;1.15;;
54853;SDS011;40747;49.480;8.658;2023-08-17T03:59:38;4.10;;;1.10;;
54853;SDS011;40747;49.480;8.658;2023-08-17T04:02:03;3.30;;;1.45;;
54853;SDS011;40747;49.480;8.658;2023-08-17T04:04:29;2.47;;;1.52;;
54853;SDS011;40747;49.480;8.658;2023-08-17T04:06:54;1.80;;;1.10;;
54853;SDS011;40747;49.480;8.658;2023-08-17T04:09:19;5.38;;;1.20;;
54853;SDS011;40747;49.480;8.658;2023-08-17T04:11:45;1.27;;;1.08;;
54853;SDS011;40747;49.480;8.658;2023-08-17T04:14:10;4.38;;;1.25;;
54853;SDS011;40747;49.480;8.658;2023-08-17T04:16:35;1.70;;;1.15;;
54853;SDS011;40747;49.480;8.658;2023-08-17T04:19:01;3.70;;;1.77;;
54853;SDS011;40747;49.480;8.658;2023-08-17T04:21:26;6.13;;;2.22;;
54853;SDS011;40747;49.480;8.658;2023-08-17T04:23:51;4.10;;;2.10;;
54853;SDS011;40747;49.480;8.658;2023-08-17T04:26:17;4.57;;;2.10;;
54853;SDS011;40747;49.480;8.658;2023-08-17T04:28:42;6.22;;;2.35;;
54853;SDS011;40747;49.480;8.658;2023-08-17T04:31:07;2.90;;;2.17;;
54853;SDS011;40747;49.480;8.658;2023-08-17T04:33:33;4.10;;;1.92;;
54853;SDS011;40747;49.480;8.658;2023-08-17T04:35:58;3.42;;;1.52;;
54853;SDS011;40747;49.480;8.658;2023-08-17T04:38:24;5.63;;;1.98;;
54853;SDS011;40747;49.480;8.658;2023-08-17T04:40:50;3.60;;;2.38;;
54853;SDS011;40747;49.480;8.658;2023-08-17T04:43:15;3.00;;;1.95;;
54853;SDS011;40747;49.480;8.658;2023-08-17T04:45:40;3.78;;;2.40;;
54853;SDS011;40747;49.480;8.658;2023-08-17T04:48:06;6.57;;;2.65;;
54853;SDS011;40747;49.480;8.658;2023-08-17T04:50:31;6.85;;;3.08;;
54853;SDS011;40747;49.480;8.658;2023-08-17T04:52:57;9.20;;;4.45;;
54853;SDS011;40747;49.480;8.658;2023-08-17T04:55:22;10.10;;;4.57;;
54853;SDS011;40747;49.480;8.658;2023-08-17T04:57:48;10.05;;;4.60;;
54853;SDS011;40747;49.480;8.658;2023-08-17T05:00:13;15.02;;;4.68;;
54853;SDS011;40747;49.480;8.658;2023-08-17T05:02:40;11.32;;;4.10;;
54853;SDS011;40747;49.480;8.658;2023-08-17T05:05:05;10.90;;;4.45;;
54853;SDS011;40747;49.480;8.658;2023-08-17T05:07:32;17.63;;;5.45;;
54853;SDS011;40747;49.480;8.658;2023-08-17T05:09:58;12.88;;;4.65;;
54853;SDS011;40747;49.480;8.658;2023-08-17T05:12:23;15.35;;;5.30;;
54853;SDS011;40747;49.480;8.658;2023-08-17T05:14:48;19.92;;;4.45;;
54853;SDS011;40747;49.480;8.658;2023-08-17T05:17:14;10.95;;;4.75;;
54853;SDS011;40747;49.480;8.658;2023-08-17T05:19:39;14.20;;;5.88;;
54853;SDS011;40747;49.480;8.658;2023-08-17T05:22:09;18.00;;;5.95;;
54853;SDS011;40747;49.480;8.658;2023-08-17T05:24:35;19.85;;;5.10;;
54853;SDS011;40747;49.480;8.658;2023-08-17T05:27:00;10.68;;;5.95;;
54853;SDS011;40747;49.480;8.658;2023-08-17T05:29:26;21.60;;;5.38;;
54853;SDS011;40747;49.480;8.658;2023-08-17T05:31:51;15.77;;;5.43;;
54853;SDS011;40747;49.480;8.658;2023-08-17T05:34:16;14.15;;;5.53;;
54853;SDS011;40747;49.480;8.658;2023-08-17T05:36:42;10.57;;;5.50;;
54853;SDS011;40747;49.480;8.658;2023-08-17T05:39:07;14.32;;;5.65;;
54853;SDS011;40747;49.480;8.658;2023-08-17T05:41:32;11.30;;;5.15;;
54853;SDS011;40747;49.480;8.658;2023-08-17T05:43:58;9.82;;;5.15;;
54853;SDS011;40747;49.480;8.658;2023-08-17T05:46:23;14.60;;;6.18;;
54853;SDS011;40747;49.480;8.658;2023-08-17T05:48:49;11.68;;;5.85;;
54853;SDS011;40747;49.480;8.658;2023-08-17T05:51:14;13.05;;;5.18;;
54853;SDS011;40747;49.480;8.658;2023-08-17T05:53:39;16.38;;;6.20;;
54853;SDS011;40747;49.480;8.658;2023-08-17T05:56:05;18.90;;;6.82;;
54853;SDS011;40747;49.480;8.658;2023-08-17T05:58:30;13.85;;;5.47;;
54853;SDS011;40747;49.480;8.658;2023-08-17T06:01:03;11.68;;;5.90;;
54853;SDS011;40747;49.480;8.658;2023-08-17T06:03:29;11.90;;;6.50;;
54853;SDS011;40747;49.480;8.658;2023-08-17T06:05:54;18.02;;;7.50;;
54853;SDS011;40747;49.480;8.658;2023-08-17T06:08:19;12.45;;;6.50;;
54853;SDS011;40747;49.480;8.658;2023-08-17T06:10:45;15.32;;;6.13;;
54853;SDS011;40747;49.480;8.658;2023-08-17T06:13:10;13.50;;;6.22;;
54853;SDS011;40747;49.480;8.658;2023-08-17T06:15:35;20.00;;;7.55;;
54853;SDS011;40747;49.480;8.658;2023-08-17T06:18:00;12.75;;;6.70;;
54853;SDS011;40747;49.480;8.658;2023-08-17T06:20:26;20.13;;;8.25;;
54853;SDS011;40747;49.480;8.658;2023-08-17T06:22:51;19.33;;;7.90;;
54853;SDS011;40747;49.480;8.658;2023-08-17T06:25:16;22.95;;;9.15;;
54853;SDS011;40747;49.480;8.658;2023-08-17T06:27:42;24.83;;;9.40;;
54853;SDS011;40747;49.480;8.658;2023-08-17T06:30:09;18.65;;;9.00;;
54853;SDS011;40747;49.480;8.658;2023-08-17T06:32:34;16.70;;;6.97;;
54853;SDS011;40747;49.480;8.658;2023-08-17T06:35:00;20.10;;;7.82;;
54853;SDS011;40747;49.480;8.658;2023-08-17T06:37:26;16.80;;;6.40;;
54853;SDS011;40747;49.480;8.658;2023-08-17T06:39:53;15.98;;;6.55;;
54853;SDS011;40747;49.480;8.658;2023-08-17T06:42:18;14.52;;;6.75;;
54853;SDS011;40747;49.480;8.658;2023-08-17T06:44:44;13.93;;;6.55;;
54853;SDS011;40747;49.480;8.658;2023-08-17T06:47:09;14.93;;;6.50;;
54853;SDS011;40747;49.480;8.658;2023-08-17T06:49:35;14.88;;;5.95;;
54853;SDS011;40747;49.480;8.658;2023-08-17T06:52:00;15.63;;;6.93;;
54853;SDS011;40747;49.480;8.658;2023-08-17T06:54:25;13.73;;;5.55;;
54853;SDS011;40747;49.480;8.658;2023-08-17T06:56:50;11.32;;;5.57;;
54853;SDS011;40747;49.480;8.658;2023-08-17T06:59:16;13.73;;;6.38;;
54853;SDS011;40747;49.480;8.658;2023-08-17T07:01:41;14.82;;;5.68;;
54853;SDS011;40747;49.480;8.658;2023-08-17T07:04:07;9.70;;;5.20;;
54853;SDS011;40747;49.480;8.658;2023-08-17T07:06:32;13.45;;;6.50;;
54853;SDS011;40747;49.480;8.658;2023-08-17T07:08:58;11.80;;;5.90;;
54853;SDS011;40747;49.480;8.658;2023-08-17T07:11:24;10.75;;;5.57;;
54853;SDS011;40747;49.480;8.658;2023-08-17T07:13:49;9.50;;;5.50;;
54853;SDS011;40747;49.480;8.658;2023-08-17T07:16:15;13.48;;;6.97;;
54853;SDS011;40747;49.480;8.658;2023-08-17T07:18:40;15.45;;;6.18;;
54853;SDS011;40747;49.480;8.658;2023-08-17T07:21:05;14.32;;;7.20;;
54853;SDS011;40747;49.480;8.658;2023-08-17T07:23:31;14.77;;;6.97;;
54853;SDS011;40747;49.480;8.658;2023-08-17T07:25:56;18.38;;;9.23;;
54853;SDS011;40747;49.480;8.658;2023-08-17T07:28:21;15.15;;;7.93;;
54853;SDS011;40747;49.480;8.658;2023-08-17T07:30:47;16.85;;;8.48;;
54853;SDS011;40747;49.480;8.658;2023-08-17T07:33:12;19.83;;;8.18;;
54853;SDS011;40747;49.480;8.658;2023-08-17T07:35:37;29.90;;;10.80;;
54853;SDS011;40747;49.480;8.658;2023-08-17T07:38:02;31.23;;;12.82;;
54853;SDS011;40747;49.480;8.658;2023-08-17T07:40:28;33.53;;;13.05;;
54853;SDS011;40747;49.480;8.658;2023-08-17T07:42:53;32.45;;;11.13;;
54853;SDS011;40747;49.480;8.658;2023-08-17T07:45:19;33.10;;;13.05;;
54853;SDS011;40747;49.480;8.658;2023-08-17T07:47:44;37.80;;;13.43;;
54853;SDS011;40747;49.480;8.658;2023-08-17T07:50:09;34.08;;;13.05;;
54853;SDS011;40747;49.480;8.658;2023-08-17T07:52:35;32.45;;;13.00;;
54853;SDS011;40747;49.480;8.658;2023-08-17T07:55:00;38.10;;;15.98;;
54853;SDS011;40747;49.480;8.658;2023-08-17T07:57:25;32.35;;;12.98;;
54853;SDS011;40747;49.480;8.658;2023-08-17T07:59:51;30.85;;;14.57;;
54853;SDS011;40747;49.480;8.658;2023-08-17T08:02:16;31.63;;;13.85;;
54853;SDS011;40747;49.480;8.658;2023-08-17T08:04:42;23.20;;;10.52;;
54853;SDS011;40747;49.480;8.658;2023-08-17T08:07:08;21.48;;;10.50;;
54853;SDS011;40747;49.480;8.658;2023-08-17T08:09:33;20.15;;;10.63;;
54853;SDS011;40747;49.480;8.658;2023-08-17T08:11:58;23.20;;;10.70;;
54853;SDS011;40747;49.480;8.658;2023-08-17T08:14:24;22.50;;;10.07;;
54853;SDS011;40747;49.480;8.658;2023-08-17T08:16:49;19.45;;;8.90;;
54853;SDS011;40747;49.480;8.658;2023-08-17T08:19:15;24.33;;;10.93;;
54853;SDS011;40747;49.480;8.658;2023-08-17T08:21:40;24.60;;;11.32;;
54853;SDS011;40747;49.480;8.658;2023-08-17T08:24:06;26.92;;;13.73;;
54853;SDS011;40747;49.480;8.658;2023-08-17T08:26:31;29.77;;;13.88;;
54853;SDS011;40747;49.480;8.658;2023-08-17T08:28:56;30.45;;;14.75;;
54853;SDS011;40747;49.480;8.658;2023-08-17T08:31:22;22.50;;;12.10;;
54853;SDS011;40747;49.480;8.658;2023-08-17T08:33:47;19.23;;;11.23;;
54853;SDS011;40747;49.480;8.658;2023-08-17T08:36:12;17.40;;;10.70;;
54853;SDS011;40747;49.480;8.658;2023-08-17T08:38:37;18.25;;;10.95;;
54853;SDS011;40747;49.480;8.658;2023-08-17T08:41:03;14.95;;;8.10;;
54853;SDS011;40747;49.480;8.658;2023-08-17T08:43:28;15.05;;;9.75;;
54853;SDS011;40747;49.480;8.658;2023-08-17T08:45:54;16.42;;;10.07;;
54853;SDS011;40747;49.480;8.658;2023-08-17T08:48:20;17.08;;;11.00;;
54853;SDS011;40747;49.480;8.658;2023-08-17T08:50:47;13.48;;;8.88;;
54853;SDS011;40747;49.480;8.658;2023-08-17T08:53:15;14.50;;;9.45;;
54853;SDS011;40747;49.480;8.658;2023-08-17T08:55:47;14.60;;;9.27;;
54853;SDS011;40747;49.480;8.658;2023-08-17T08:58:18;11.95;;;6.57;;
54853;SDS011;40747;49.480;8.658;2023-08-17T09:00:45;9.90;;;5.78;;
54853;SDS011;40747;49.480;8.658;2023-08-17T09:03:12;9.50;;;5.93;;
54853;SDS011;40747;49.480;8.658;2023-08-17T09:05:38;10.80;;;6.32;;
54853;SDS011;40747;49.480;8.658;2023-08-17T09:08:08;9.60;;;6.85;;
54853;SDS011;40747;49.480;8.658;2023-08-17T09:10:33;11.25;;;6.95;;
54853;SDS011;40747;49.480;8.658;2023-08-17T09:12:59;11.30;;;8.20;;
54853;SDS011;40747;49.480;8.658;2023-08-17T09:15:24;10.30;;;8.25;;
54853;SDS011;40747;49.480;8.658;2023-08-17T09:17:49;11.30;;;7.68;;
54853;SDS011;40747;49.480;8.658;2023-08-17T09:23:17;9.65;;;6.25;;
54853;SDS011;40747;49.480;8.658;2023-08-17T09:25:45;5.95;;;5.00;;
54853;SDS011;40747;49.480;8.658;2023-08-17T09:28:14;8.13;;;5.53;;
54853;SDS011;40747;49.480;8.658;2023-08-17T09:30:56;11.35;;;6.03;;
54853;SDS011;40747;49.480;8.658;2023-08-17T09:33:24;7.50;;;5.75;;
54853;SDS011;40747;49.480;8.658;2023-08-17T09:36:02;8.95;;;6.90;;
54853;SDS011;40747;49.480;8.658;2023-08-17T09:38:28;6.72;;;5.15;;
54853;SDS011;40747;49.480;8.658;2023-08-17T09:40:54;6.72;;;4.43;;
54853;SDS011;40747;49.480;8.658;2023-08-17T09:43:19;4.90;;;3.60;;
54853;SDS011;40747;49.480;8.658;2023-08-17T09:45:48;3.63;;;2.80;;
54853;SDS011;40747;49.480;8.658;2023-08-17T09:48:18;8.13;;;3.58;;
54853;SDS011;40747;49.480;8.658;2023-08-17T09:50:47;5.90;;;4.00;;
54853;SDS011;40747;49.480;8.658;2023-08-17T09:53:14;4.65;;;4.03;;
54853;SDS011;40747;49.480;8.658;2023-08-17T09:55:46;5.10;;;3.30;;
54853;SDS011;40747;49.480;8.658;2023-08-17T09:58:12;5.68;;;4.03;;
54853;SDS011;40747;49.480;8.658;2023-08-17T10:00:43;5.57;;;4.32;;
54853;SDS011;40747;49.480;8.658;2023-08-17T10:03:11;5.68;;;3.45;;
54853;SDS011;40747;49.480;8.658;2023-08-17T10:05:40;5.88;;;3.22;;
54853;SDS011;40747;49.480;8.658;2023-08-17T10:08:07;9.95;;;3.58;;
54853;SDS011;40747;49.480;8.658;2023-08-17T10:10:34;5.22;;;3.17;;
54853;SDS011;40747;49.480;8.658;2023-08-17T10:13:10;6.22;;;4.00;;
54853;SDS011;40747;49.480;8.658;2023-08-17T10:15:47;6.15;;;3.70;;
54853;SDS011;40747;49.480;8.658;2023-08-17T10:18:29;6.68;;;4.00;;
54853;SDS011;40747;49.480;8.658;2023-08-17T10:21:29;5.18;;;3.58;;
54853;SDS011;40747;49.480;8.658;2023-08-17T10:24:01;7.50;;;4.18;;
54853;SDS011;40747;49.480;8.658;2023-08-17T10:26:28;4.90;;;3.67;;
54853;SDS011;40747;49.480;8.658;2023-08-17T10:28:54;4.97;;;3.97;;
54853;SDS011;40747;49.480;8.658;2023-08-17T10:31:20;5.20;;;3.70;;
54853;SDS011;40747;49.480;8.658;2023-08-17T10:33:46;5.45;;;3.53;;
54853;SDS011;40747;49.480;8.658;2023-08-17T10:36:12;5.90;;;3.55;;
54853;SDS011;40747;49.480;8.658;2023-08-17T10:38:39;6.30;;;4.22;;
54853;SDS011;40747;49.480;8.658;2023-08-17T10:41:08;7.10;;;3.95;;
54853;SDS011;40747;49.480;8.658;2023-08-17T10:43:52;6.65;;;3.92;;
54853;SDS011;40747;49.480;8.658;2023-08-17T10:46:18;7.43;;;4.13;;
54853;SDS011;40747;49.480;8.658;2023-08-17T10:48:44;5.63;;;3.65;;
54853;SDS011;40747;49.480;8.658;2023-08-17T10:51:09;6.63;;;4.00;;
54853;SDS011;40747;49.480;8.658;2023-08-17T10:53:38;7.35;;;3.88;;
54853;SDS011;40747;49.480;8.658;2023-08-17T10:56:07;5.95;;;4.30;;
54853;SDS011;40747;49.480;8.658;2023-08-17T10:58:37;5.88;;;3.65;;
54853;SDS011;40747;49.480;8.658;2023-08-17T11:01:02;8.70;;;3.90;;
54853;SDS011;40747;49.480;8.658;2023-08-17T11:03:30;5.45;;;3.53;;
54853;SDS011;40747;49.480;8.658;2023-08-17T11:05:56;3.60;;;3.30;;
54853;SDS011;40747;49.480;8.658;2023-08-17T11:13:32;5.63;;;3.50;;
54853;SDS011;40747;49.480;8.658;2023-08-17T11:16:00;6.13;;;4.65;;
54853;SDS011;40747;49.480;8.658;2023-08-17T11:18:27;6.28;;;4.05;;
54853;SDS011;40747;49.480;8.658;2023-08-17T11:20:56;5.80;;;4.10;;
54853;SDS011;40747;49.480;8.658;2023-08-17T11:23:22;5.38;;;4.35;;
54853;SDS011;40747;49.480;8.658;2023-08-17T11:25:48;7.10;;;5.25;;
54853;SDS011;40747;49.480;8.658;2023-08-17T11:28:16;4.93;;;4.32;;
54853;SDS011;40747;49.480;8.658;2023-08-17T11:30:42;6.57;;;4.05;;
54853;SDS011;40747;49.480;8.658;2023-08-17T11:33:08;4.97;;;3.63;;
54853;SDS011;40747;49.480;8.658;2023-08-17T11:35:34;6.30;;;5.28;;
54853;SDS011;40747;49.480;8.658;2023-08-17T11:38:00;5.13;;;4.22;;
54853;SDS011;40747;49.480;8.658;2023-08-17T11:40:26;6.55;;;4.70;;
54853;SDS011;40747;49.480;8.658;2023-08-17T11:42:52;5.25;;;3.95;;
54853;SDS011;40747;49.480;8.658;2023-08-17T11:45:17;6.55;;;3.47;;
54853;SDS011;40747;49.480;8.658;2023-08-17T11:47:43;6.05;;;4.82;;
54853;SDS011;40747;49.480;8.658;2023-08-17T11:50:10;7.13;;;3.95;;
54853;SDS011;40747;49.480;8.658;2023-08-17T11:52:37;5.97;;;4.40;;
54853;SDS011;40747;49.480;8.658;2023-08-17T11:55:03;5.50;;;3.80;;
54853;SDS011;40747;49.480;8.658;2023-08-17T11:57:30;5.93;;;4.53;;
54853;SDS011;40747;49.480;8.658;2023-08-17T11:59:57;6.97;;;6.07;;
54853;SDS011;40747;49.480;8.658;2023-08-17T12:02:23;5.90;;;4.25;;
54853;SDS011;40747;49.480;8.658;2023-08-17T12:04:48;7.50;;;5.25;;
54853;SDS011;40747;49.480;8.658;2023-08-17T12:07:14;8.82;;;4.60;;
54853;SDS011;40747;49.480;8.658;2023-08-17T12:09:41;5.38;;;4.38;;
54853;SDS011;40747;49.480;8.658;2023-08-17T12:12:07;7.47;;;5.15;;
54853;SDS011;40747;49.480;8.658;2023-08-17T12:14:33;6.00;;;4.07;;
54853;SDS011;40747;49.480;8.658;2023-08-17T12:16:58;5.68;;;4.13;;
54853;SDS011;40747;49.480;8.658;2023-08-17T12:19:26;4.38;;;3.10;;
54853;SDS011;40747;49.480;8.658;2023-08-17T12:21:52;3.92;;;2.92;;
54853;SDS011;40747;49.480;8.658;2023-08-17T12:24:17;3.85;;;3.50;;
54853;SDS011;40747;49.480;8.658;2023-08-17T12:26:44;4.50;;;2.95;;
54853;SDS011;40747;49.480;8.658;2023-08-17T12:29:13;4.57;;;3.42;;
54853;SDS011;40747;49.480;8.658;2023-08-17T12:31:39;4.20;;;2.90;;
54853;SDS011;40747;49.480;8.658;2023-08-17T12:34:04;2.83;;;2.55;;
54853;SDS011;40747;49.480;8.658;2023-08-17T12:36:31;7.35;;;3.40;;
54853;SDS011;40747;49.480;8.658;2023-08-17T12:38:56;4.53;;;2.67;;
54853;SDS011;40747;49.480;8.658;2023-08-17T12:41:22;3.60;;;3.13;;
54853;SDS011;40747;49.480;8.658;2023-08-17T12:43:47;3.15;;;2.85;;
54853;SDS011;40747;49.480;8.658;2023-08-17T12:46:12;3.67;;;2.90;;
54853;SDS011;40747;49.480;8.658;2023-08-17T12:48:38;4.40;;;3.40;;
54853;SDS011;40747;49.480;8.658;2023-08-17T12:51:03;4.45;;;3.30;;
54853;SDS011;40747;49.480;8.658;2023-08-17T12:53:29;3.83;;;2.97;;
54853;SDS011;40747;49.480;8.658;2023-08-17T12:55:54;8.57;;;2.92;;
54853;SDS011;40747;49.480;8.658;2023-08-17T12:58:20;5.65;;;2.90;;
54853;SDS011;40747;49.480;8.658;2023-08-17T13:00:45;3.08;;;2.55;;
54853;SDS011;40747;49.480;8.658;2023-08-17T13:03:11;7.50;;;3.10;;
54853;SDS011;40747;49.480;8.658;2023-08-17T13:05:36;3.15;;;2.67;;
54853;SDS011;40747;49.480;8.658;2023-08-17T13:08:01;5.25;;;3.15;;
54853;SDS011;40747;49.480;8.658;2023-08-17T13:10:27;4.05;;;3.08;;
54853;SDS011;40747;49.480;8.658;2023-08-17T13:12:52;6.43;;;3.60;;
54853;SDS011;40747;49.480;8.658;2023-08-17T13:15:21;4.95;;;3.95;;
54853;SDS011;40747;49.480;8.658;2023-08-17T13:17:47;3.95;;;3.58;;
54853;SDS011;40747;49.480;8.658;2023-08-17T13:20:12;5.45;;;4.20;;
54853;SDS011;40747;49.480;8.658;2023-08-17T13:22:38;4.82;;;3.40;;
54853;SDS011;40747;49.480;8.658;2023-08-17T13:25:03;6.57;;;3.65;;
54853;SDS011;40747;49.480;8.658;2023-08-17T13:27:29;4.90;;;3.60;;
54853;SDS011;40747;49.480;8.658;2023-08-17T13:29:54;4.93;;;4.10;;
54853;SDS011;40747;49.480;8.658;2023-08-17T13:32:20;4.75;;;4.00;;
54853;SDS011;40747;49.480;8.658;2023-08-17T13:34:45;4.60;;;3.60;;
54853;SDS011;40747;49.480;8.658;2023-08-17T13:37:11;4.43;;;3.78;;
54853;SDS011;40747;49.480;8.658;2023-08-17T13:39:36;7.03;;;4.30;;
54853;SDS011;40747;49.480;8.658;2023-08-17T13:42:01;4.38;;;3.97;;
54853;SDS011;40747;49.480;8.658;2023-08-17T13:44:27;4.13;;;3.72;;
54853;SDS011;40747;49.480;8.658;2023-08-17T13:46:52;4.95;;;3.08;;
54853;SDS011;40747;49.480;8.658;2023-08-17T13:49:17;3.75;;;3.40;;
54853;SDS011;40747;49.480;8.658;2023-08-17T13:51:43;6.22;;;3.72;;
54853;SDS011;40747;49.480;8.658;2023-08-17T13:54:08;4.50;;;3.22;;
54853;SDS011;40747;49.480;8.658;2023-08-17T13:56:34;5.45;;;3.17;;
54853;SDS011;40747;49.480;8.658;2023-08-17T13:58:59;4.88;;;3.08;;
54853;SDS011;40747;49.480;8.658;2023-08-17T14:01:24;3.53;;;2.97;;
54853;SDS011;40747;49.480;8.658;2023-08-17T14:03:50;4.63;;;3.45;;
54853;SDS011;40747;49.480;8.658;2023-08-17T14:06:15;7.90;;;4.85;;
54853;SDS011;40747;49.480;8.658;2023-08-17T14:08:41;5.72;;;5.13;;
54853;SDS011;40747;49.480;8.658;2023-08-17T14:11:06;6.68;;;5.18;;
54853;SDS011;40747;49.480;8.658;2023-08-17T14:13:33;7.70;;;5.30;;
54853;SDS011;40747;49.480;8.658;2023-08-17T14:15:59;6.85;;;4.88;;
54853;SDS011;40747;49.480;8.658;2023-08-17T14:18:25;7.15;;;4.85;;
54853;SDS011;40747;49.480;8.658;2023-08-17T14:20:50;5.30;;;4.80;;
54853;SDS011;40747;49.480;8.658;2023-08-17T14:23:15;6.60;;;5.40;;
54853;SDS011;40747;49.480;8.658;2023-08-17T14:25:41;4.85;;;3.80;;
54853;SDS011;40747;49.480;8.658;2023-08-17T14:28:07;5.75;;;4.30;;
54853;SDS011;40747;49.480;8.658;2023-08-17T14:30:33;4.25;;;3.85;;
54853;SDS011;40747;49.480;8.658;2023-08-17T14:32:59;5.82;;;3.60;;
54853;SDS011;40747;49.480;8.658;2023-08-17T14:35:25;4.95;;;3.60;;
54853;SDS011;40747;49.480;8.658;2023-08-17T14:37:51;4.53;;;3.70;;
54853;SDS011;40747;49.480;8.658;2023-08-17T14:40:17;5.25;;;4.75;;
54853;SDS011;40747;49.480;8.658;2023-08-17T14:42:42;7.68;;;5.03;;
54853;SDS011;40747;49.480;8.658;2023-08-17T14:45:07;5.90;;;4.20;;
54853;SDS011;40747;49.480;8.658;2023-08-17T14:47:33;7.18;;;4.40;;
54853;SDS011;40747;49.480;8.658;2023-08-17T14:49:58;4.07;;;3.50;;
54853;SDS011;40747;49.480;8.658;2023-08-17T14:52:24;4.95;;;4.07;;